Time;durP1;ratioP1;P1;durP2;ratioP2;P2;SDS_P1;SDS_P2;PMS_P1;PMS_P2;Temp;Humidity;BMP_temperature;BMP_pressure;BME280_temperature;BME280_humidity;BME280_pressure;Samples;Min_cycle;Max_cycle;Signal;HPM_P1;HPM_P2
2022/01/28 00:01:33;;;;;;;20.75;4.68;;;5.40;81.60;;;;;;5018693;28;19971;-46
2022/01/28 00:04:11;;;;;;;29.17;5.40;;;5.30;81.70;;;;;;5034513;28;20032;-45
2022/01/28 00:06:37;;;;;;;28.27;5.93;;;5.30;82.00;;;;;;5035958;28;20052;-46
2022/01/28 00:09:03;;;;;;;30.50;5.10;;;5.20;82.30;;;;;;5035877;28;20032;-46
2022/01/28 00:11:28;;;;;;;29.58;4.80;;;5.20;81.60;;;;;;5035411;28;20354;-46
2022/01/28 00:14:04;;;;;;;20.77;5.10;;;5.20;81.40;;;;;;5036130;28;20125;-48
2022/01/28 00:38:44;;;;;;;21.17;3.90;;;5.40;79.30;;;;;;5035337;28;20537;-50
2022/01/28 00:41:10;;;;;;;22.10;4.78;;;5.40;79.60;;;;;;5034162;28;20033;-46
2022/01/28 00:43:36;;;;;;;16.48;4.95;;;5.30;80.10;;;;;;5035301;28;20431;-46
2022/01/28 00:46:01;;;;;;;23.02;4.13;;;5.30;80.10;;;;;;5034045;28;20077;-47
2022/01/28 00:48:27;;;;;;;16.75;3.75;;;5.30;80.60;;;;;;5035594;28;20423;-50
2022/01/28 00:50:53;;;;;;;31.73;5.13;;;5.30;80.40;;;;;;5034207;28;20030;-46
2022/01/28 00:53:19;;;;;;;30.77;6.03;;;5.30;80.90;;;;;;5035287;28;20065;-46
2022/01/28 00:55:44;;;;;;;28.95;4.95;;;5.30;81.60;;;;;;5035523;28;20042;-46
2022/01/28 00:58:10;;;;;;;28.00;5.00;;;5.40;81.90;;;;;;5033730;28;20434;-47
2022/01/28 01:00:36;;;;;;;19.95;3.95;;;5.40;81.80;;;;;;5017359;28;20045;-46
2022/01/28 01:03:01;;;;;;;20.45;5.97;;;5.40;81.60;;;;;;5035100;28;20075;-45
2022/01/28 01:05:30;;;;;;;23.80;5.22;;;5.40;81.50;;;;;;5046914;28;20033;-46
2022/01/28 01:07:56;;;;;;;36.37;6.00;;;5.50;81.40;;;;;;5034835;28;20481;-49
2022/01/28 01:10:23;;;;;;;22.65;5.07;;;5.40;81.60;;;;;;5034578;28;20112;-46
2022/01/28 01:12:49;;;;;;;24.20;5.22;;;5.40;81.70;;;;;;5034995;28;20025;-46
2022/01/28 01:15:19;;;;;;;23.10;5.32;;;5.30;81.00;;;;;;5033335;28;20036;-46
2022/01/28 01:18:01;;;;;;;24.33;4.97;;;5.30;80.90;;;;;;5034810;28;20044;-47
2022/01/28 01:23:07;;;;;;;44.25;8.10;;;5.20;80.30;;;;;;5034775;28;20164;-46
2022/01/28 01:25:43;;;;;;;17.80;4.82;;;5.20;80.00;;;;;;5034545;28;20032;-45
2022/01/28 01:28:13;;;;;;;21.75;5.65;;;5.30;80.00;;;;;;5034377;28;20021;-45
2022/01/28 01:30:41;;;;;;;23.58;4.30;;;5.30;79.50;;;;;;5033291;28;20378;-47
2022/01/28 01:33:08;;;;;;;18.17;4.57;;;5.30;79.60;;;;;;5034390;28;20443;-45
2022/01/28 01:35:33;;;;;;;25.67;4.82;;;5.30;79.60;;;;;;5033244;28;20118;-45
2022/01/28 01:38:00;;;;;;;25.40;5.53;;;5.30;79.50;;;;;;5035028;28;20061;-46
2022/01/28 01:40:32;;;;;;;26.52;5.28;;;5.30;79.40;;;;;;5033736;28;20044;-47
2022/01/28 01:43:12;;;;;;;26.80;6.55;;;5.40;79.60;;;;;;5031852;28;20043;-46
2022/01/28 01:54:05;;;;;;;28.17;5.13;;;5.50;76.80;;;;;;5033946;28;20048;-47
2022/01/28 01:56:32;;;;;;;19.10;5.10;;;5.60;76.70;;;;;;5033892;28;20033;-46
2022/01/28 01:58:58;;;;;;;15.90;3.63;;;5.70;76.40;;;;;;5033840;28;20113;-46
2022/01/28 02:01:24;;;;;;;29.00;6.05;;;5.60;76.20;;;;;;5034012;28;20045;-46
2022/01/28 02:03:50;;;;;;;29.05;5.30;;;5.70;75.90;;;;;;5032953;28;20598;-46
2022/01/28 02:06:19;;;;;;;25.27;5.70;;;5.70;75.70;;;;;;5033512;28;20462;-45
2022/01/28 02:08:45;;;;;;;27.80;5.03;;;5.70;75.40;;;;;;5033777;28;20029;-45
2022/01/28 02:11:13;;;;;;;23.30;4.68;;;5.70;76.00;;;;;;5032522;28;20279;-49
2022/01/28 02:13:40;;;;;;;22.65;5.45;;;5.70;76.40;;;;;;5033430;28;20110;-47
2022/01/28 02:16:07;;;;;;;25.27;5.28;;;5.60;76.50;;;;;;5033213;28;20335;-48
2022/01/28 02:18:34;;;;;;;24.25;4.93;;;5.60;77.10;;;;;;5033531;28;20040;-48
2022/01/28 02:21:06;;;;;;;20.65;4.85;;;5.60;77.70;;;;;;5032442;28;20031;-46
2022/01/28 02:23:33;;;;;;;25.05;5.28;;;5.60;78.00;;;;;;5033477;28;20348;-47
2022/01/28 02:26:00;;;;;;;23.15;4.40;;;5.60;77.60;;;;;;5016483;28;20030;-46
2022/01/28 02:28:28;;;;;;;24.48;6.15;;;5.60;76.60;;;;;;5033263;28;20044;-46
2022/01/28 02:30:54;;;;;;;14.45;4.43;;;5.60;76.70;;;;;;5033201;28;20026;-48
2022/01/28 02:33:23;;;;;;;19.60;4.80;;;5.60;76.70;;;;;;5033846;28;20033;-45
2022/01/28 02:35:50;;;;;;;29.83;5.40;;;5.70;76.70;;;;;;5033132;28;20038;-48
2022/01/28 02:38:19;;;;;;;22.52;5.50;;;5.70;77.00;;;;;;5032385;28;20052;-47
2022/01/28 02:40:49;;;;;;;19.63;5.93;;;5.70;76.40;;;;;;5032923;28;20033;-48
2022/01/28 02:45:49;;;;;;;20.95;4.40;;;5.80;76.40;;;;;;5018031;28;20043;-46
2022/01/28 02:48:19;;;;;;;28.63;5.53;;;5.80;76.50;;;;;;5032353;28;20033;-46
2022/01/28 02:51:00;;;;;;;;;;;5.80;77.20;;;;;;5033719;28;20026;-45
2022/01/28 02:53:29;;;;;;;29.08;4.47;;;5.80;78.60;;;;;;5033069;28;19917;-47
2022/01/28 02:56:01;;;;;;;30.02;6.60;;;5.80;79.10;;;;;;5032305;28;20443;-46
2022/01/28 02:58:27;;;;;;;20.45;5.88;;;5.70;79.00;;;;;;5031662;28;20039;-46
2022/01/28 03:00:57;;;;;;;20.40;4.30;;;5.60;79.00;;;;;;5033201;28;20021;-46
2022/01/28 03:03:24;;;;;;;30.92;8.43;;;5.50;79.10;;;;;;5032790;28;20037;-45
2022/01/28 03:05:50;;;;;;;27.90;5.45;;;5.50;79.00;;;;;;5033113;28;20057;-48
2022/01/28 03:08:17;;;;;;;17.60;5.00;;;5.40;79.10;;;;;;5033028;28;20091;-49
2022/01/28 03:16:15;;;;;;;11.07;2.85;;;5.40;81.00;;;;;;5032561;28;20103;-47
2022/01/28 03:18:50;;;;;;;12.53;2.27;;;5.10;82.50;;;;;;5032520;28;20044;-46
2022/01/28 03:21:36;;;;;;;19.30;4.75;;;4.90;79.80;;;;;;5032972;28;20028;-45
2022/01/28 03:24:04;;;;;;;15.65;2.85;;;4.80;81.30;;;;;;5013232;28;20498;-46
2022/01/28 03:26:30;;;;;;;14.32;2.90;;;4.70;82.00;;;;;;5026680;28;20366;-47
2022/01/28 03:28:55;;;;;;;8.50;2.35;;;4.60;82.00;;;;;;5031798;28;20029;-45
2022/01/28 03:31:21;;;;;;;13.90;2.95;;;4.50;82.10;;;;;;5033024;28;20026;-45
2022/01/28 03:33:47;;;;;;;16.70;3.10;;;4.50;81.90;;;;;;5032765;28;20036;-49
2022/01/28 03:36:14;;;;;;;22.95;4.18;;;4.50;81.70;;;;;;5032661;28;20068;-46
2022/01/28 03:38:41;;;;;;;26.95;3.70;;;4.60;81.70;;;;;;5031840;28;20037;-44
2022/01/28 03:41:13;;;;;;;31.98;4.38;;;4.80;81.70;;;;;;5032647;28;20103;-45
2022/01/28 03:43:44;;;;;;;22.23;4.53;;;4.90;82.00;;;;;;5014519;28;20415;-47
2022/01/28 03:46:10;;;;;;;19.67;4.43;;;5.00;82.40;;;;;;5031403;28;20052;-46
2022/01/28 03:48:35;;;;;;;24.30;5.57;;;5.00;82.60;;;;;;5032811;28;20124;-46
2022/01/28 03:51:01;;;;;;;17.00;3.67;;;4.90;82.70;;;;;;5032849;28;20048;-46
2022/01/28 03:53:27;;;;;;;15.77;4.63;;;4.90;81.90;;;;;;5034392;28;20037;-47
2022/01/28 03:55:56;;;;;;;19.38;4.63;;;5.00;82.00;;;;;;5034712;28;20171;-45
2022/01/28 03:58:21;;;;;;;17.20;3.85;;;5.00;82.30;;;;;;5036147;28;20022;-50
2022/01/28 04:00:47;;;;;;;17.35;3.70;;;4.70;85.00;;;;;;5036003;28;20079;-49
2022/01/28 04:03:37;;;;;;;17.70;3.85;;;4.20;86.70;;;;;;5036137;28;20072;-49
2022/01/28 04:13:54;;;;;;;23.27;4.10;;;4.10;87.80;;;;;;5035929;28;20025;-47
2022/01/28 04:18:47;;;;;;;38.28;7.07;;;4.20;87.20;;;;;;5035976;28;20538;-47
2022/01/28 04:21:13;;;;;;;39.10;7.50;;;4.20;87.10;;;;;;5035787;28;20030;-46
2022/01/28 04:23:38;;;;;;;32.53;6.80;;;4.20;87.10;;;;;;5035552;28;20363;-46
2022/01/28 04:26:04;;;;;;;36.92;6.32;;;4.20;87.30;;;;;;5036063;28;20037;-46
2022/01/28 04:28:32;;;;;;;39.30;6.72;;;4.40;87.40;;;;;;5035409;28;20361;-45
2022/01/28 04:30:58;;;;;;;36.58;6.05;;;4.40;86.80;;;;;;5035855;28;20033;-44
2022/01/28 04:33:24;;;;;;;19.77;7.07;;;4.50;85.60;;;;;;5035908;28;20112;-45
2022/01/28 04:35:53;;;;;;;34.92;6.63;;;4.50;83.20;;;;;;5035220;28;20125;-47
2022/01/28 04:41:32;;;;;;;21.35;4.97;;;4.70;81.70;;;;;;5013745;28;20080;-44
2022/01/28 04:44:06;;;;;;;28.42;5.95;;;4.70;81.20;;;;;;5011789;28;20100;-44
2022/01/28 04:46:42;;;;;;;29.23;5.80;;;4.80;81.00;;;;;;5004018;28;20042;-46
2022/01/28 04:49:39;;;;;;;24.08;5.43;;;4.80;81.10;;;;;;4999859;28;20042;-44
2022/01/28 05:23:53;;;;;;;42.05;8.35;;;5.20;76.20;;;;;;5026180;28;20061;-46
2022/01/28 05:25:48;;;;;;;32.13;5.70;;;5.20;77.10;;;;;;5033079;28;20052;-45
2022/01/28 05:28:17;;;;;;;29.02;7.82;;;5.20;78.60;;;;;;5033452;28;20033;-45
2022/01/28 05:30:45;;;;;;;28.35;5.65;;;5.20;78.10;;;;;;5033853;28;20033;-45
2022/01/28 05:33:11;;;;;;;21.63;4.78;;;5.20;77.60;;;;;;5045268;28;20035;-45
2022/01/28 05:35:37;;;;;;;31.20;5.82;;;5.20;77.80;;;;;;5034265;28;20029;-47
2022/01/28 05:38:03;;;;;;;37.15;8.32;;;5.20;78.40;;;;;;5033912;28;20167;-46
2022/01/28 05:40:28;;;;;;;28.65;4.97;;;5.20;79.70;;;;;;5032796;28;20108;-45
2022/01/28 05:42:56;;;;;;;30.52;5.78;;;5.20;79.70;;;;;;5034106;28;20195;-45
2022/01/28 05:45:22;;;;;;;25.55;4.10;;;5.10;76.90;;;;;;5048203;28;20139;-46
2022/01/28 05:47:47;;;;;;;26.88;6.78;;;5.20;75.40;;;;;;5049996;28;20068;-44
2022/01/28 05:50:13;;;;;;;29.52;9.20;;;5.20;75.20;;;;;;5038125;28;20029;-46
2022/01/28 05:52:39;;;;;;;18.30;3.50;;;5.20;74.80;;;;;;5033723;28;20029;-46
2022/01/28 05:55:05;;;;;;;22.90;5.63;;;5.30;73.80;;;;;;5030795;28;20032;-45
2022/01/28 05:57:30;;;;;;;23.45;5.28;;;5.30;73.40;;;;;;5033174;28;20040;-45
2022/01/28 05:59:56;;;;;;;20.42;4.80;;;5.30;72.30;;;;;;5032369;28;20367;-45
2022/01/28 06:02:21;;;;;;;22.65;4.90;;;5.30;72.00;;;;;;5032903;28;20064;-48
2022/01/28 06:04:47;;;;;;;20.17;4.20;;;5.40;72.90;;;;;;5032544;28;20053;-45
2022/01/28 06:07:13;;;;;;;19.35;4.75;;;5.30;73.40;;;;;;5032950;28;20033;-49
2022/01/28 06:09:39;;;;;;;22.92;6.30;;;5.40;74.00;;;;;;5031886;28;20494;-46
2022/01/28 06:12:05;;;;;;;22.55;4.93;;;5.40;74.60;;;;;;5024065;28;20121;-48
2022/01/28 06:14:30;;;;;;;21.00;5.18;;;5.40;74.00;;;;;;5032670;28;20029;-49
2022/01/28 06:16:56;;;;;;;40.72;8.07;;;5.40;73.50;;;;;;5032457;28;20124;-47
2022/01/28 06:19:22;;;;;;;20.90;4.60;;;5.50;73.20;;;;;;5033258;28;20056;-47
2022/01/28 06:21:47;;;;;;;22.08;3.88;;;5.50;73.60;;;;;;5031569;28;20048;-46
2022/01/28 06:24:13;;;;;;;22.75;5.80;;;5.50;74.00;;;;;;5032480;28;20095;-47
2022/01/28 06:26:40;;;;;;;21.90;3.72;;;5.50;72.40;;;;;;5032289;28;20044;-46
2022/01/28 06:29:06;;;;;;;22.30;3.90;;;5.50;72.60;;;;;;5033243;28;20132;-46
2022/01/28 06:31:32;;;;;;;24.45;4.35;;;5.50;72.30;;;;;;5032859;28;20518;-46
2022/01/28 06:33:57;;;;;;;21.00;4.22;;;5.50;72.20;;;;;;5032606;28;20056;-46
2022/01/28 06:36:23;;;;;;;25.20;4.45;;;5.50;72.70;;;;;;5031789;28;20053;-46
2022/01/28 06:38:49;;;;;;;24.05;4.65;;;5.50;72.60;;;;;;5031296;28;20044;-47
2022/01/28 06:41:15;;;;;;;19.00;4.07;;;5.50;73.10;;;;;;5032889;28;20221;-46
2022/01/28 06:43:40;;;;;;;23.40;4.38;;;5.50;74.00;;;;;;5037218;28;20083;-46
2022/01/28 06:46:06;;;;;;;23.65;5.22;;;5.50;73.90;;;;;;5030870;28;20501;-47
2022/01/28 06:48:32;;;;;;;24.33;4.60;;;5.50;74.40;;;;;;5032252;28;20067;-46
2022/01/28 06:50:58;;;;;;;23.00;3.70;;;5.60;73.50;;;;;;5032512;28;20049;-46
2022/01/28 06:53:24;;;;;;;21.05;4.35;;;5.60;73.10;;;;;;5032437;28;20087;-46
2022/01/28 06:55:49;;;;;;;20.05;4.28;;;5.60;73.30;;;;;;5032405;28;20033;-46
2022/01/28 06:58:17;;;;;;;19.02;4.20;;;5.60;73.70;;;;;;5031549;28;20052;-48
2022/01/28 07:00:43;;;;;;;25.75;5.03;;;5.60;73.40;;;;;;5030972;28;20144;-47
2022/01/28 07:03:14;;;;;;;37.30;7.15;;;5.60;74.50;;;;;;5032034;28;20523;-46
2022/01/28 07:05:41;;;;;;;29.17;5.00;;;5.60;74.30;;;;;;5030915;28;20029;-48
2022/01/28 07:08:07;;;;;;;25.10;5.70;;;5.50;73.80;;;;;;5032070;28;20030;-46
2022/01/28 07:10:34;;;;;;;19.88;4.05;;;5.60;73.70;;;;;;5032721;28;20014;-47
2022/01/28 07:13:00;;;;;;;17.33;3.83;;;5.50;72.30;;;;;;5029838;28;20030;-46
2022/01/28 07:15:27;;;;;;;22.55;4.55;;;5.50;70.10;;;;;;5032311;28;20037;-46
2022/01/28 07:17:57;;;;;;;25.40;5.50;;;5.50;70.20;;;;;;5032366;28;20029;-46
2022/01/28 07:20:23;;;;;;;31.08;5.78;;;5.60;70.10;;;;;;5030448;28;20021;-47
2022/01/28 07:22:49;;;;;;;23.33;4.93;;;5.60;71.20;;;;;;5030347;28;20343;-47
2022/01/28 07:25:14;;;;;;;23.77;4.60;;;5.60;72.40;;;;;;5031942;28;20033;-49
2022/01/28 07:27:40;;;;;;;17.42;4.18;;;5.50;73.10;;;;;;5032788;28;20056;-47
2022/01/28 07:30:07;;;;;;;18.80;5.15;;;5.50;73.60;;;;;;5045428;28;20043;-46
2022/01/28 07:32:33;;;;;;;17.25;4.05;;;5.60;74.40;;;;;;5035929;28;20102;-46
2022/01/28 07:34:58;;;;;;;27.38;5.40;;;5.50;75.30;;;;;;5034980;28;20088;-48
2022/01/28 07:37:24;;;;;;;24.33;5.93;;;5.60;76.00;;;;;;5035006;28;20051;-51
2022/01/28 07:39:50;;;;;;;27.85;4.82;;;5.60;76.50;;;;;;5035780;28;20033;-48
2022/01/28 07:42:18;;;;;;;26.45;4.80;;;5.60;77.20;;;;;;5035548;28;20041;-48
2022/01/28 07:44:44;;;;;;;26.13;5.65;;;5.60;77.60;;;;;;5035466;28;20049;-48
2022/01/28 07:47:10;;;;;;;17.67;3.72;;;5.60;77.10;;;;;;5034735;28;20030;-47
2022/01/28 07:49:36;;;;;;;25.50;4.28;;;5.70;76.20;;;;;;5036003;28;20041;-45
2022/01/28 07:52:01;;;;;;;22.73;4.07;;;5.70;75.30;;;;;;5036149;28;20347;-46
2022/01/28 07:54:29;;;;;;;16.42;3.78;;;5.70;74.60;;;;;;5035299;28;20092;-47
2022/01/28 07:56:55;;;;;;;27.10;4.80;;;5.80;74.80;;;;;;5035473;28;20044;-47
2022/01/28 07:59:24;;;;;;;24.00;5.38;;;5.80;75.50;;;;;;5035187;28;20029;-47
2022/01/28 08:01:50;;;;;;;23.13;5.22;;;5.80;75.40;;;;;;5035262;28;20466;-47
2022/01/28 08:04:15;;;;;;;28.20;5.30;;;5.80;76.20;;;;;;5035270;28;20047;-45
2022/01/28 08:06:41;;;;;;;28.35;5.75;;;5.80;76.70;;;;;;5035371;28;20095;-49
2022/01/28 08:09:07;;;;;;;30.73;6.55;;;5.80;76.90;;;;;;5036450;28;20025;-46
2022/01/28 08:11:35;;;;;;;20.13;5.20;;;5.70;77.30;;;;;;5036060;28;20021;-46
2022/01/28 08:14:02;;;;;;;29.95;4.90;;;5.70;77.80;;;;;;5035635;28;20080;-47
2022/01/28 08:16:28;;;;;;;22.20;5.90;;;5.70;77.60;;;;;;5033505;28;20022;-48
2022/01/28 08:18:53;;;;;;;35.63;7.82;;;5.70;76.70;;;;;;5035091;28;20041;-46
2022/01/28 08:21:19;;;;;;;24.20;5.40;;;5.80;76.40;;;;;;5035354;28;20041;-46
2022/01/28 08:23:45;;;;;;;21.52;4.55;;;5.90;76.30;;;;;;5035811;28;20336;-46
2022/01/28 08:26:11;;;;;;;25.92;5.32;;;5.90;75.90;;;;;;5035356;28;20042;-47
2022/01/28 08:28:38;;;;;;;32.22;6.03;;;5.90;75.60;;;;;;5034533;28;20189;-47
2022/01/28 08:31:04;;;;;;;27.05;5.88;;;5.90;75.50;;;;;;5035490;28;20037;-46
2022/01/28 08:33:29;;;;;;;19.35;4.28;;;6.00;75.80;;;;;;5035395;28;20037;-50
2022/01/28 08:35:55;;;;;;;24.42;5.07;;;6.10;75.60;;;;;;5035742;28;20391;-46
2022/01/28 08:38:26;;;;;;;17.15;4.30;;;6.20;75.00;;;;;;5032690;28;20034;-49
2022/01/28 08:40:53;;;;;;;28.55;4.85;;;6.40;74.50;;;;;;5035393;28;20045;-46
2022/01/28 08:43:20;;;;;;;24.80;4.05;;;6.50;73.80;;;;;;5016499;28;20025;-47
2022/01/28 08:45:46;;;;;;;17.15;3.72;;;6.50;73.20;;;;;;5035045;28;20053;-46
2022/01/28 08:48:11;;;;;;;24.60;4.47;;;6.40;73.50;;;;;;5034503;28;20443;-46
2022/01/28 08:50:37;;;;;;;30.98;4.55;;;6.40;73.20;;;;;;5034048;28;20112;-47
2022/01/28 08:53:02;;;;;;;19.48;3.90;;;6.30;73.40;;;;;;5034292;28;20091;-47
2022/01/28 08:55:28;;;;;;;20.73;4.93;;;6.20;73.70;;;;;;5034197;28;20036;-46
2022/01/28 08:57:54;;;;;;;32.00;5.97;;;6.10;73.90;;;;;;5034939;28;20037;-45
2022/01/28 09:00:22;;;;;;;23.38;6.47;;;6.10;74.30;;;;;;5034914;28;20021;-48
2022/01/28 09:02:47;;;;;;;17.10;4.43;;;6.00;74.70;;;;;;5034394;28;20021;-46
2022/01/28 09:05:16;;;;;;;26.25;5.05;;;6.00;74.90;;;;;;5034698;28;20040;-50
2022/01/28 09:07:41;;;;;;;24.88;5.38;;;6.00;75.50;;;;;;5034168;28;20029;-47
2022/01/28 09:10:17;;;;;;;20.05;4.57;;;5.90;76.00;;;;;;5034652;28;20100;-45
2022/01/28 09:13:09;;;;;;;22.77;5.15;;;5.90;76.60;;;;;;5031889;28;20033;-51
2022/01/28 09:15:38;;;;;;;28.70;4.60;;;5.90;76.90;;;;;;5027248;28;20041;-47
2022/01/28 09:18:04;;;;;;;24.75;4.70;;;6.20;77.00;;;;;;5034313;28;20030;-50
2022/01/28 09:20:32;;;;;;;20.45;4.55;;;6.40;76.40;;;;;;5033729;28;20481;-49
2022/01/28 09:23:01;;;;;;;22.38;4.72;;;6.40;76.00;;;;;;5033353;28;20443;-47
2022/01/28 09:25:28;;;;;;;29.92;4.32;;;6.30;75.40;;;;;;5033821;28;20022;-48
2022/01/28 09:27:54;;;;;;;27.92;5.13;;;6.40;75.00;;;;;;5033706;28;20110;-46
2022/01/28 09:30:20;;;;;;;19.15;3.97;;;6.50;74.20;;;;;;5033973;28;20025;-46
2022/01/28 09:32:46;;;;;;;22.08;6.70;;;6.60;73.60;;;;;;5034438;28;20037;-49
2022/01/28 09:35:14;;;;;;;17.25;3.53;;;6.60;72.80;;;;;;5033130;28;20025;-50
2022/01/28 09:37:40;;;;;;;30.08;4.28;;;6.50;72.40;;;;;;5033904;28;20053;-48
2022/01/28 09:40:06;;;;;;;19.10;4.10;;;6.40;73.20;;;;;;5033008;28;20030;-49
2022/01/28 09:42:37;;;;;;;29.13;4.25;;;6.40;73.90;;;;;;5032900;28;20120;-46
2022/01/28 09:45:07;;;;;;;22.17;4.15;;;6.40;74.30;;;;;;5033511;28;20045;-47
2022/01/28 09:47:33;;;;;;;19.42;4.50;;;6.50;74.80;;;;;;5034261;28;20073;-46
2022/01/28 09:49:59;;;;;;;22.23;5.82;;;6.80;75.10;;;;;;5033185;28;20860;-46
2022/01/28 09:52:25;;;;;;;40.63;7.07;;;6.90;75.10;;;;;;5033398;28;20108;-47
2022/01/28 09:54:50;;;;;;;17.85;4.85;;;7.00;74.80;;;;;;5033045;28;20175;-47
2022/01/28 09:57:18;;;;;;;26.38;5.47;;;6.90;74.50;;;;;;5032776;28;20033;-47
2022/01/28 09:59:44;;;;;;;25.08;6.10;;;7.00;73.70;;;;;;5031806;28;20033;-52
2022/01/28 10:02:10;;;;;;;19.05;4.13;;;6.90;73.20;;;;;;5032568;28;20048;-48
2022/01/28 10:04:36;;;;;;;21.67;4.28;;;6.90;71.70;;;;;;5032896;28;20474;-47
2022/01/28 10:07:15;;;;;;;14.57;4.00;;;6.70;72.60;;;;;;5032949;28;20043;-52
2022/01/28 10:09:58;;;;;;;27.63;4.75;;;6.70;72.20;;;;;;5033561;28;20375;-45
2022/01/28 10:12:49;;;;;;;23.58;4.80;;;6.60;72.90;;;;;;5032768;28;20033;-50
2022/01/28 10:15:28;;;;;;;17.98;3.70;;;6.60;73.70;;;;;;5031718;28;20082;-46
2022/01/28 10:17:58;;;;;;;23.10;4.80;;;6.60;74.20;;;;;;5031385;28;20028;-50
2022/01/28 10:20:25;;;;;;;27.83;5.68;;;6.60;74.80;;;;;;5032644;28;20025;-47
2022/01/28 10:23:01;;;;;;;18.73;5.00;;;6.60;75.50;;;;;;5033105;28;20022;-48
2022/01/28 10:25:35;;;;;;;24.90;5.22;;;6.70;75.60;;;;;;5033465;28;20100;-50
2022/01/28 10:28:12;;;;;;;32.28;5.72;;;6.70;76.10;;;;;;5024498;28;20041;-47
2022/01/28 10:30:40;;;;;;;29.38;4.90;;;6.70;76.40;;;;;;5019640;28;20068;-49
2022/01/28 10:33:18;;;;;;;24.48;4.65;;;6.70;76.00;;;;;;5013548;28;20074;-49
2022/01/28 10:35:55;;;;;;;25.42;4.35;;;6.80;75.80;;;;;;5032020;28;20018;-46
2022/01/28 10:38:41;;;;;;;27.05;5.25;;;6.70;75.70;;;;;;5047707;28;20040;-46
2022/01/28 10:41:14;;;;;;;25.38;4.72;;;6.70;76.20;;;;;;5032724;28;20053;-48
2022/01/28 10:43:45;;;;;;;32.25;5.10;;;6.80;76.40;;;;;;5032851;28;20032;-46
2022/01/28 10:46:10;;;;;;;25.95;4.40;;;6.80;76.70;;;;;;5032434;28;20053;-50
2022/01/28 10:49:03;;;;;;;20.92;4.72;;;6.80;76.30;;;;;;5031514;28;20572;-48
2022/01/28 10:51:50;;;;;;;23.33;4.70;;;6.80;76.20;;;;;;5031818;28;20100;-47
2022/01/28 10:54:21;;;;;;;27.42;5.38;;;6.90;75.90;;;;;;5032402;28;20463;-49
2022/01/28 10:56:58;;;;;;;25.10;5.93;;;6.90;75.20;;;;;;5031480;28;20030;-48
2022/01/28 10:59:30;;;;;;;24.70;5.95;;;6.90;74.80;;;;;;5032626;28;20026;-47
2022/01/28 11:01:57;;;;;;;21.95;4.25;;;6.90;73.50;;;;;;5024390;28;20339;-46
2022/01/28 11:04:25;;;;;;;28.67;4.63;;;6.90;73.30;;;;;;5036321;28;20030;-48
2022/01/28 11:06:54;;;;;;;22.38;3.97;;;7.00;73.80;;;;;;5028865;28;20030;-47
2022/01/28 11:09:21;;;;;;;18.52;4.30;;;7.10;72.10;;;;;;5037083;28;20026;-47
2022/01/28 11:11:48;;;;;;;22.23;4.13;;;7.20;70.60;;;;;;5037092;28;20025;-46
2022/01/28 11:14:14;;;;;;;20.65;3.92;;;7.30;69.70;;;;;;5045543;28;20030;-46
2022/01/28 11:16:42;;;;;;;33.13;4.60;;;7.50;70.10;;;;;;5036388;28;20029;-46
2022/01/28 11:19:13;;;;;;;19.83;4.45;;;7.60;69.30;;;;;;5035444;28;20033;-46
2022/01/28 11:21:48;;;;;;;21.55;3.75;;;7.60;70.20;;;;;;5035625;28;20060;-48
2022/01/28 11:24:54;;;;;;;18.05;4.10;;;7.70;69.70;;;;;;5036060;28;20034;-48
2022/01/28 11:27:32;;;;;;;14.93;2.58;;;7.60;68.70;;;;;;4998011;28;20455;-47
2022/01/28 11:30:30;;;;;;;13.23;3.40;;;7.60;68.80;;;;;;5014937;28;20042;-47
2022/01/28 11:33:05;;;;;;;12.55;3.47;;;7.70;68.70;;;;;;4976829;28;20481;-47
2022/01/28 11:35:53;;;;;;;15.13;3.42;;;7.60;67.90;;;;;;4997877;28;20072;-49
2022/01/28 11:38:24;;;;;;;16.80;3.88;;;7.50;67.40;;;;;;5008603;28;20161;-47
2022/01/28 11:41:06;;;;;;;11.23;2.72;;;7.50;68.10;;;;;;5013978;28;20030;-48
2022/01/28 11:43:33;;;;;;;16.88;4.20;;;7.50;67.40;;;;;;5014080;28;20044;-49
2022/01/28 11:46:17;;;;;;;28.80;6.53;;;7.40;68.20;;;;;;5013743;28;20049;-47
2022/01/28 11:49:04;;;;;;;23.02;4.00;;;7.40;69.60;;;;;;5012077;28;20045;-46
2022/01/28 11:51:32;;;;;;;18.00;3.22;;;7.40;69.60;;;;;;5012771;28;20582;-46
2022/01/28 11:54:04;;;;;;;24.38;3.60;;;7.40;68.80;;;;;;5013892;28;20065;-46
2022/01/28 11:56:31;;;;;;;21.40;4.45;;;7.40;69.00;;;;;;5013704;28;20041;-48
2022/01/28 11:59:08;;;;;;;16.52;4.72;;;7.50;69.30;;;;;;5013677;28;20038;-47
2022/01/28 12:01:39;;;;;;;14.13;3.90;;;7.50;69.20;;;;;;5027653;28;20470;-49
2022/01/28 12:04:23;;;;;;;17.63;4.80;;;7.40;68.50;;;;;;5034657;28;20494;-45
2022/01/28 12:06:58;;;;;;;22.85;4.03;;;7.30;69.10;;;;;;5034697;28;20025;-51
2022/01/28 12:09:25;;;;;;;27.10;4.15;;;7.30;70.10;;;;;;5033205;28;20037;-47
2022/01/28 12:11:51;;;;;;;12.85;3.47;;;7.30;70.70;;;;;;5035432;28;20049;-46
2022/01/28 12:14:18;;;;;;;16.38;3.78;;;7.30;71.70;;;;;;5032826;28;20112;-49
2022/01/28 12:16:47;;;;;;;21.40;3.33;;;7.40;72.50;;;;;;5035017;28;20049;-49
2022/01/28 12:19:20;;;;;;;23.88;3.45;;;7.40;72.80;;;;;;5034441;28;20037;-49
2022/01/28 12:22:21;;;;;;;15.73;3.95;;;7.40;73.80;;;;;;5034261;28;20045;-46
2022/01/28 12:24:46;;;;;;;25.40;4.20;;;7.50;73.90;;;;;;4998026;28;20053;-46
2022/01/28 12:27:13;;;;;;;28.77;5.40;;;7.50;74.40;;;;;;5014894;28;20082;-51
2022/01/28 12:29:46;;;;;;;24.02;5.53;;;7.50;74.00;;;;;;5010891;28;20522;-46
2022/01/28 12:32:14;;;;;;;28.02;4.93;;;7.50;74.40;;;;;;5014417;28;20062;-46
2022/01/28 12:34:44;;;;;;;27.02;3.95;;;7.50;74.60;;;;;;5013843;28;20439;-47
2022/01/28 12:37:10;;;;;;;18.83;3.95;;;7.50;74.50;;;;;;5013221;28;20044;-49
2022/01/28 12:39:40;;;;;;;18.35;3.70;;;7.50;75.00;;;;;;5013257;28;20042;-47
2022/01/28 12:42:23;;;;;;;18.38;4.03;;;7.40;74.80;;;;;;5013472;28;20117;-46
2022/01/28 12:44:59;;;;;;;25.52;4.20;;;7.40;75.10;;;;;;5014692;28;20046;-48
2022/01/28 12:47:26;;;;;;;19.10;3.85;;;7.40;74.30;;;;;;4999021;28;20025;-50
2022/01/28 12:49:56;;;;;;;21.52;4.47;;;7.40;74.50;;;;;;5012987;28;20022;-48
2022/01/28 12:52:22;;;;;;;19.65;3.78;;;7.30;73.60;;;;;;5004066;28;20124;-46
2022/01/28 12:54:48;;;;;;;18.05;3.47;;;7.20;74.30;;;;;;5012678;28;20669;-49
2022/01/28 12:57:19;;;;;;;18.23;3.53;;;7.20;73.60;;;;;;5013150;28;20173;-49
2022/01/28 12:59:46;;;;;;;17.95;4.75;;;7.20;73.70;;;;;;5032985;28;20118;-46
2022/01/28 13:02:13;;;;;;;21.55;3.53;;;7.20;73.80;;;;;;5034623;28;20044;-47
2022/01/28 13:10:24;;;;;;;26.15;4.85;;;7.10;72.50;;;;;;5034782;28;20044;-45
2022/01/28 13:12:52;;;;;;;18.95;3.80;;;7.00;73.50;;;;;;5034347;28;20028;-45
2022/01/28 13:15:18;;;;;;;17.33;5.15;;;7.00;73.60;;;;;;5032474;28;20034;-47
2022/01/28 13:17:56;;;;;;;22.52;4.60;;;7.00;74.00;;;;;;5033620;28;20037;-50
2022/01/28 13:20:23;;;;;;;25.48;4.15;;;6.90;73.90;;;;;;5032623;28;20053;-47
2022/01/28 13:22:52;;;;;;;22.25;3.25;;;6.90;74.60;;;;;;5034044;28;20366;-46
2022/01/28 13:25:26;;;;;;;20.08;3.78;;;6.90;74.40;;;;;;5030199;28;20021;-46
2022/01/28 13:27:58;;;;;;;20.08;3.85;;;6.90;74.50;;;;;;5034022;28;20041;-45
2022/01/28 13:30:25;;;;;;;25.15;4.72;;;6.90;74.50;;;;;;5031545;28;20030;-45
2022/01/28 13:32:52;;;;;;;20.67;3.60;;;6.90;74.60;;;;;;5034332;28;20418;-46
2022/01/28 13:35:21;;;;;;;15.20;3.60;;;6.90;74.90;;;;;;5033542;28;20036;-46
2022/01/28 13:37:48;;;;;;;17.05;3.60;;;6.90;74.20;;;;;;5033060;28;20037;-46
2022/01/28 13:40:31;;;;;;;13.10;3.60;;;6.90;73.60;;;;;;5034202;28;20044;-46
2022/01/28 13:43:16;;;;;;;19.92;3.22;;;6.90;73.90;;;;;;5033991;28;20076;-50
2022/01/28 13:45:51;;;;;;;18.08;3.53;;;6.90;73.30;;;;;;5034173;28;20535;-46
2022/01/28 13:48:32;;;;;;;15.90;3.45;;;6.90;74.60;;;;;;5033237;28;20037;-46
2022/01/28 13:51:21;;;;;;;18.58;3.58;;;7.00;74.90;;;;;;5032728;28;20080;-48
2022/01/28 13:56:29;;;;;;;18.75;3.03;;;6.80;73.90;;;;;;5032909;28;20108;-48
2022/01/28 13:58:55;;;;;;;16.90;2.75;;;6.70;74.40;;;;;;5034380;28;20033;-45
2022/01/28 14:01:25;;;;;;;21.27;4.38;;;6.50;74.30;;;;;;5032895;28;20029;-45
2022/01/28 14:03:56;;;;;;;18.38;3.78;;;6.40;75.00;;;;;;5033592;28;20384;-47
2022/01/28 14:06:30;;;;;;;14.85;4.05;;;6.40;75.40;;;;;;5033808;28;20502;-46
2022/01/28 14:09:06;;;;;;;24.85;4.10;;;6.40;75.50;;;;;;5033368;28;20041;-50
2022/01/28 14:11:50;;;;;;;15.20;5.18;;;6.30;75.90;;;;;;5033481;28;20040;-47
2022/01/28 14:14:17;;;;;;;13.98;3.03;;;6.30;76.20;;;;;;5033555;28;20029;-45
2022/01/28 14:16:47;;;;;;;19.33;4.20;;;6.30;75.40;;;;;;5033605;28;20036;-46
2022/01/28 14:19:13;;;;;;;19.88;3.78;;;6.40;73.20;;;;;;5032350;28;20378;-46
2022/01/28 14:21:41;;;;;;;21.05;4.60;;;6.40;73.60;;;;;;5021165;28;20033;-46
2022/01/28 14:24:08;;;;;;;14.95;2.85;;;6.50;73.00;;;;;;5024585;28;20139;-45
2022/01/28 14:26:42;;;;;;;17.90;4.43;;;6.50;73.80;;;;;;5022927;28;20041;-47
2022/01/28 14:31:53;;;;;;;17.52;3.50;;;6.60;74.40;;;;;;5019866;28;20474;-46
2022/01/28 14:34:21;;;;;;;16.17;3.42;;;6.60;74.80;;;;;;5022944;28;20021;-48
2022/01/28 14:36:47;;;;;;;26.23;3.95;;;6.50;74.60;;;;;;5025874;28;20470;-46